Main page
METAR-TAF:

METAR-TAF

Airports :

Lyon–Saint-Exupéry Airport

Lyon / Saint Exupéry, France

latitude: 45-44N, longitude: 005-05E, elevation: 248 m

Current weather observation

The report was made 16 minutes ago, at 02:30 UTC
Wind 8 kt from the North/Northwest
Temperature 15°C
Humidity 88%
Pressure 1024 hPa
Visibility 10 km or more
no clouds below 1500 m and no cumulonimbus

METAR: LFLL 190230Z 33008KT CAVOK 15/13 Q1024 NOSIG

Time: 04:46 (02:46 UTC)

Forecast

The report was made 3 hours and 46 minutes ago, at 23:00 UTC
Forecast valid from 19 at 00 UTC to 20 at 06 UTC
Wind 6 kt from the North/Northwest
Visibility 10 km or more
no clouds below 1500 m and no cumulonimbus
Becoming
from 19 at 08 UTC to 19 at 11 UTC
Wind 12 kt from the North/Northwest
Becoming
from 20 at 00 UTC to 20 at 02 UTC
Wind 2 kt from variable directions

TAF: LFLL 182300Z 1900/2006 34006KT CAVOK BECMG 1908/1911 34012KT BECMG 2000/2002 VRB02KT

Weather observations and forecasts of more than 4000 airports (METAR and TAF reports).

The available stations are represented by yellow and red dots on the map.

Hover mouse over dot to see the name of the station.

Then click to see weather observations and forecasts.

To change the map : click on the green buttons with a black cross to zoom in, on the green button with a dash to zoom out, or on the green arrows for adjacent maps.


METAR-TAF: